Time;durP1;ratioP1;P1;durP2;ratioP2;P2;SDS_P1;SDS_P2;PMS_P1;PMS_P2;Temp;Humidity;BMP_temperature;BMP_pressure;BME280_temperature;BME280_humidity;BME280_pressure;Samples;Min_cycle;Max_cycle;Signal;HPM_P1;HPM_P2
2023/02/28 00:00:28;;;;;;;10.50;6.23;;;-2.10;76.90;;;;;;4995063;28;20858;-61
2023/02/28 00:02:54;;;;;;;6.67;5.60;;;-2.10;76.90;;;;;;4999091;28;20461;-59
2023/02/28 00:05:23;;;;;;;8.03;6.00;;;-2.10;75.80;;;;;;4997830;28;20281;-59
2023/02/28 00:07:49;;;;;;;8.43;6.00;;;-2.10;76.70;;;;;;5002948;28;20293;-59
2023/02/28 00:10:20;;;;;;;10.20;6.97;;;-2.10;78.30;;;;;;5005068;28;21012;-60
2023/02/28 00:12:59;;;;;;;9.27;6.60;;;-2.10;80.10;;;;;;5005016;28;20244;-60
2023/02/28 00:15:25;;;;;;;9.77;5.97;;;-2.10;81.30;;;;;;5021448;28;20458;-60
2023/02/28 00:17:51;;;;;;;10.27;6.50;;;-2.10;81.60;;;;;;5004476;28;20878;-59
2023/02/28 00:20:17;;;;;;;8.50;6.90;;;-2.10;81.10;;;;;;5007939;28;20170;-60
2023/02/28 00:22:46;;;;;;;15.00;7.87;;;-2.10;83.00;;;;;;5003675;28;20475;-59
2023/02/28 00:25:16;;;;;;;10.80;6.60;;;-2.10;82.90;;;;;;5007736;28;20463;-60
2023/02/28 00:27:42;;;;;;;10.40;6.17;;;-2.10;85.30;;;;;;5005179;28;20516;-59
2023/02/28 00:30:12;;;;;;;8.80;5.97;;;-2.20;84.70;;;;;;5007875;28;20425;-59
2023/02/28 00:32:38;;;;;;;12.13;6.03;;;-2.20;85.40;;;;;;5002629;28;20459;-59
2023/02/28 00:35:04;;;;;;;9.53;5.80;;;-2.20;85.10;;;;;;5008709;28;20445;-59
2023/02/28 00:37:30;;;;;;;8.23;5.77;;;-2.20;84.30;;;;;;5009237;28;20200;-59
2023/02/28 00:39:56;;;;;;;9.27;6.80;;;-2.20;85.30;;;;;;5010234;28;20934;-60
2023/02/28 00:42:22;;;;;;;6.77;5.50;;;-2.20;84.50;;;;;;5004605;28;20219;-59
2023/02/28 00:44:47;;;;;;;7.40;5.87;;;-2.20;85.50;;;;;;5006826;28;20546;-60
2023/02/28 00:47:13;;;;;;;7.57;5.43;;;-2.20;85.70;;;;;;5004597;28;20184;-59
2023/02/28 00:49:38;;;;;;;10.40;6.93;;;-2.20;86.40;;;;;;5005324;28;20647;-60
2023/02/28 00:52:04;;;;;;;10.70;7.47;;;-2.20;87.30;;;;;;5006383;28;20214;-59
2023/02/28 00:54:30;;;;;;;8.70;5.57;;;-2.20;88.40;;;;;;4997802;28;20198;-60
2023/02/28 00:56:55;;;;;;;8.53;6.23;;;-2.20;88.50;;;;;;5006484;28;20173;-59
2023/02/28 00:59:21;;;;;;;7.90;5.83;;;-2.20;87.80;;;;;;5001578;28;20250;-59
2023/02/28 01:01:47;;;;;;;9.30;6.83;;;-2.30;87.50;;;;;;4995737;28;20209;-59
2023/02/28 01:04:13;;;;;;;10.83;6.70;;;-2.30;88.60;;;;;;5002109;28;20679;-59
2023/02/28 01:06:39;;;;;;;10.03;6.50;;;-2.30;89.10;;;;;;5007426;28;20437;-60
2023/02/28 01:09:06;;;;;;;9.63;6.50;;;-2.20;90.10;;;;;;5007935;28;20456;-59
2023/02/28 01:11:32;;;;;;;7.50;5.70;;;-2.30;90.10;;;;;;5002984;28;20999;-59
2023/02/28 01:13:58;;;;;;;7.83;6.33;;;-2.30;90.00;;;;;;5006418;28;20461;-62
2023/02/28 01:16:24;;;;;;;9.00;6.73;;;-2.30;90.10;;;;;;5004394;28;20437;-59
2023/02/28 01:18:49;;;;;;;9.50;6.33;;;-2.30;89.00;;;;;;5005195;28;20448;-59
2023/02/28 01:21:16;;;;;;;8.13;6.27;;;-2.30;88.40;;;;;;5000470;28;20456;-59
2023/02/28 01:23:43;;;;;;;14.20;6.50;;;-2.30;88.70;;;;;;5007216;28;20198;-60
2023/02/28 01:26:21;;;;;;;9.17;6.27;;;-2.30;90.00;;;;;;5017311;28;20520;-59
2023/02/28 01:28:47;;;;;;;10.20;6.20;;;-2.30;88.60;;;;;;5004050;28;20453;-60
2023/02/28 01:31:13;;;;;;;8.27;6.30;;;-2.30;89.60;;;;;;5003413;28;20465;-60
2023/02/28 01:33:39;;;;;;;9.07;6.00;;;-2.30;89.70;;;;;;5001411;28;21036;-59
2023/02/28 01:36:10;;;;;;;7.13;6.03;;;-2.30;89.70;;;;;;5007004;28;20431;-59
2023/02/28 01:38:36;;;;;;;7.43;6.30;;;-2.30;89.80;;;;;;5005576;28;20525;-59
2023/02/28 01:41:02;;;;;;;10.97;6.40;;;-2.30;88.60;;;;;;5000589;28;20478;-60
2023/02/28 01:43:29;;;;;;;8.80;6.90;;;-2.30;89.30;;;;;;5005279;28;20183;-59
2023/02/28 01:45:56;;;;;;;10.50;7.17;;;-2.30;88.40;;;;;;5006287;28;20437;-60
2023/02/28 01:48:27;;;;;;;8.80;6.90;;;-2.30;87.40;;;;;;5007414;28;20936;-60
2023/02/28 01:50:56;;;;;;;9.73;6.40;;;-2.30;88.20;;;;;;5006054;28;20441;-59
2023/02/28 01:53:30;;;;;;;8.80;6.23;;;-2.30;90.00;;;;;;5000836;28;20431;-59
2023/02/28 01:55:56;;;;;;;13.23;6.30;;;-2.30;88.90;;;;;;5005932;28;20420;-59
2023/02/28 01:58:22;;;;;;;9.40;6.60;;;-2.30;88.40;;;;;;5007211;28;20435;-59
2023/02/28 02:00:48;;;;;;;11.93;7.00;;;-2.30;88.80;;;;;;5000465;28;20531;-59
2023/02/28 02:03:18;;;;;;;10.73;7.27;;;-2.30;89.20;;;;;;5003198;28;20427;-59
2023/02/28 02:05:47;;;;;;;8.50;6.70;;;-2.30;90.10;;;;;;5004546;28;20916;-59
2023/02/28 02:08:19;;;;;;;9.10;6.90;;;-2.30;89.80;;;;;;5003549;28;20432;-59
2023/02/28 02:10:49;;;;;;;11.57;6.90;;;-2.30;90.00;;;;;;5003676;28;20436;-59
2023/02/28 02:13:17;;;;;;;8.60;7.00;;;-2.30;90.70;;;;;;5000766;28;20824;-59
2023/02/28 02:16:21;;;;;;;9.30;5.90;;;-2.20;89.90;;;;;;5007050;28;20482;-59
2023/02/28 02:18:49;;;;;;;12.27;6.43;;;-2.20;89.30;;;;;;5002213;28;20440;-59
2023/02/28 02:21:33;;;;;;;12.83;6.43;;;-2.20;87.40;;;;;;5000927;28;21058;-59
2023/02/28 02:24:20;;;;;;;10.53;6.53;;;-2.20;87.70;;;;;;5003967;28;21034;-60
2023/02/28 02:27:23;;;;;;;9.63;6.73;;;-2.20;85.30;;;;;;5000829;28;20426;-59
2023/02/28 02:30:04;;;;;;;8.90;6.47;;;-2.20;84.70;;;;;;5000137;28;20433;-59
2023/02/28 02:32:48;;;;;;;8.77;6.80;;;-2.20;84.20;;;;;;5000482;28;20900;-59
2023/02/28 02:35:16;;;;;;;12.53;6.10;;;-2.20;83.40;;;;;;5008465;28;20489;-59
2023/02/28 02:37:50;;;;;;;7.00;6.30;;;-2.20;83.20;;;;;;5003608;28;20503;-59
2023/02/28 02:40:23;;;;;;;8.70;6.70;;;-2.20;82.30;;;;;;5011278;28;20475;-59
2023/02/28 02:42:57;;;;;;;9.67;7.00;;;-2.20;82.00;;;;;;5000658;28;20551;-59
2023/02/28 02:45:36;;;;;;;9.03;6.10;;;-2.20;82.20;;;;;;4999490;28;20448;-59
2023/02/28 02:48:06;;;;;;;11.23;6.90;;;-2.20;83.10;;;;;;4997249;28;20439;-59
2023/02/28 02:50:40;;;;;;;9.00;7.00;;;-2.20;81.70;;;;;;5004144;28;20866;-61
2023/02/28 02:53:08;;;;;;;11.90;6.90;;;-2.10;79.70;;;;;;5001325;28;20436;-59
2023/02/28 02:55:38;;;;;;;10.00;6.67;;;-2.20;79.00;;;;;;5000189;28;20555;-59
2023/02/28 02:58:08;;;;;;;9.33;6.50;;;-2.20;78.60;;;;;;5006124;28;20465;-61
2023/02/28 03:00:39;;;;;;;9.60;6.67;;;-2.20;78.60;;;;;;4998702;28;20447;-58
2023/02/28 03:03:06;;;;;;;10.80;6.60;;;-2.20;79.10;;;;;;4999252;28;20596;-59
2023/02/28 03:05:46;;;;;;;9.60;6.53;;;-2.20;78.60;;;;;;5003869;28;20537;-60
2023/02/28 03:08:12;;;;;;;9.97;7.23;;;-2.20;79.30;;;;;;4999701;28;20430;-59
2023/02/28 03:10:41;;;;;;;10.47;7.10;;;-2.20;78.20;;;;;;5000123;28;20427;-59
2023/02/28 03:13:09;;;;;;;11.80;6.00;;;-2.20;77.50;;;;;;5003467;28;20186;-59
2023/02/28 03:15:59;;;;;;;9.70;6.80;;;-2.20;77.20;;;;;;5001586;28;21192;-60
2023/02/28 03:18:57;;;;;;;9.57;6.17;;;-2.10;76.40;;;;;;5000534;28;20437;-60
2023/02/28 03:21:26;;;;;;;12.73;6.40;;;-2.20;75.90;;;;;;4993311;28;20923;-59
2023/02/28 03:24:15;;;;;;;12.03;7.10;;;-2.20;77.30;;;;;;5004952;28;20459;-59
2023/02/28 03:26:47;;;;;;;9.37;6.83;;;-2.10;77.80;;;;;;5003396;28;20441;-59
2023/02/28 03:29:23;;;;;;;8.47;6.60;;;-2.10;77.10;;;;;;5001291;28;20432;-59
2023/02/28 03:32:14;;;;;;;8.80;6.63;;;-2.10;76.70;;;;;;5004129;28;20479;-59
2023/02/28 03:34:47;;;;;;;10.67;6.90;;;-2.10;76.40;;;;;;4975635;28;20544;-59
2023/02/28 03:37:21;;;;;;;9.70;6.83;;;-2.10;75.20;;;;;;5018056;28;20532;-59
2023/02/28 03:39:53;;;;;;;12.97;8.40;;;-2.10;74.60;;;;;;5003482;28;20477;-59
2023/02/28 03:42:22;;;;;;;13.63;6.93;;;-2.10;75.20;;;;;;5002694;28;20553;-59
2023/02/28 03:44:53;;;;;;;8.50;6.43;;;-2.10;74.60;;;;;;5006109;28;20888;-59
2023/02/28 03:47:19;;;;;;;10.40;7.00;;;-2.10;75.50;;;;;;5002677;28;20524;-59
2023/02/28 03:49:52;;;;;;;9.60;7.30;;;-2.10;75.70;;;;;;5001314;28;20525;-61
2023/02/28 03:52:20;;;;;;;9.67;7.13;;;-2.10;75.10;;;;;;5002013;28;20265;-60
2023/02/28 03:54:51;;;;;;;7.27;5.87;;;-2.10;74.10;;;;;;5002058;28;20460;-59
2023/02/28 03:57:53;;;;;;;10.83;7.50;;;-2.10;74.00;;;;;;5005993;28;20871;-59
2023/02/28 04:00:25;;;;;;;10.67;6.80;;;-2.10;74.10;;;;;;4994725;28;20461;-59
2023/02/28 04:02:52;;;;;;;12.83;7.07;;;-2.10;74.30;;;;;;4999756;28;20470;-59
2023/02/28 04:05:21;;;;;;;12.10;7.20;;;-2.10;74.10;;;;;;5003788;28;20963;-59
2023/02/28 04:07:48;;;;;;;11.33;7.10;;;-2.10;74.40;;;;;;5000046;28;20444;-59
2023/02/28 04:10:15;;;;;;;14.70;8.47;;;-2.10;74.00;;;;;;5001179;28;20430;-59
2023/02/28 04:12:40;;;;;;;10.07;6.10;;;-2.10;73.80;;;;;;4999622;28;20456;-58
2023/02/28 04:15:07;;;;;;;9.13;5.93;;;-2.10;74.30;;;;;;5005026;28;20828;-56
2023/02/28 04:17:32;;;;;;;9.90;7.37;;;-2.10;74.60;;;;;;5001313;28;20215;-58
2023/02/28 04:19:58;;;;;;;10.70;6.97;;;-2.20;75.30;;;;;;4998779;28;20961;-59
2023/02/28 04:22:26;;;;;;;10.20;7.53;;;-2.10;74.90;;;;;;5006634;28;20209;-58
2023/02/28 04:24:54;;;;;;;9.77;6.77;;;-2.20;74.00;;;;;;5007103;28;20559;-58
2023/02/28 04:27:20;;;;;;;12.00;7.90;;;-2.10;74.00;;;;;;5001175;28;20444;-59
2023/02/28 04:29:46;;;;;;;10.97;7.27;;;-2.20;73.80;;;;;;5002887;28;21873;-58
2023/02/28 04:32:11;;;;;;;14.03;8.00;;;-2.10;73.60;;;;;;5006816;28;21244;-58
2023/02/28 04:34:37;;;;;;;10.67;7.53;;;-2.20;73.30;;;;;;5007177;28;20205;-58
2023/02/28 04:37:03;;;;;;;11.67;7.60;;;-2.20;73.90;;;;;;5004017;28;20184;-58
2023/02/28 04:39:29;;;;;;;8.57;6.43;;;-2.20;73.60;;;;;;4998436;28;20206;-59
2023/02/28 04:41:55;;;;;;;15.77;7.07;;;-2.20;73.90;;;;;;5019397;28;21117;-58
2023/02/28 04:44:21;;;;;;;10.60;7.50;;;-2.20;74.10;;;;;;5004336;28;20216;-58
2023/02/28 04:46:48;;;;;;;11.67;7.80;;;-2.10;73.80;;;;;;5005325;28;20179;-58
2023/02/28 04:49:15;;;;;;;14.77;8.30;;;-2.10;73.20;;;;;;5005184;28;20510;-59
2023/02/28 04:51:41;;;;;;;11.50;7.40;;;-2.10;73.20;;;;;;4995757;28;20528;-58
2023/02/28 04:54:07;;;;;;;12.30;7.40;;;-2.10;73.00;;;;;;5001968;28;20458;-54
2023/02/28 04:56:33;;;;;;;12.07;7.63;;;-2.10;75.10;;;;;;5005450;28;20527;-58
2023/02/28 04:58:58;;;;;;;13.97;7.50;;;-2.10;78.00;;;;;;5005622;28;20537;-58
2023/02/28 05:01:24;;;;;;;11.43;7.80;;;-2.00;77.10;;;;;;4997736;28;20458;-58
2023/02/28 05:03:51;;;;;;;12.90;8.27;;;-2.00;74.20;;;;;;4993861;28;20294;-54
2023/02/28 05:06:17;;;;;;;12.33;8.13;;;-1.90;72.80;;;;;;4995963;28;20182;-55
2023/02/28 05:08:43;;;;;;;12.60;8.37;;;-1.90;72.00;;;;;;5015195;28;20429;-55
2023/02/28 05:11:16;;;;;;;12.37;8.37;;;-1.90;70.50;;;;;;5002700;28;20437;-60
2023/02/28 05:13:42;;;;;;;12.33;7.90;;;-1.90;70.50;;;;;;4996439;28;20316;-61
2023/02/28 05:16:07;;;;;;;15.03;7.03;;;-2.00;70.40;;;;;;5000519;28;20436;-60
2023/02/28 05:18:33;;;;;;;10.27;7.80;;;-2.00;70.90;;;;;;4994443;28;20193;-61
2023/02/28 05:21:02;;;;;;;11.53;8.53;;;-2.10;71.00;;;;;;4996728;28;20186;-62
2023/02/28 05:23:27;;;;;;;11.77;7.93;;;-2.10;71.30;;;;;;4998330;28;20655;-62
2023/02/28 05:25:53;;;;;;;12.63;7.70;;;-2.00;71.40;;;;;;5004190;28;20429;-61
2023/02/28 05:28:20;;;;;;;11.60;8.20;;;-2.00;71.70;;;;;;4998818;28;20674;-61
2023/02/28 05:30:46;;;;;;;12.23;7.67;;;-2.00;71.60;;;;;;4994445;28;20444;-61
2023/02/28 05:33:12;;;;;;;10.63;7.10;;;-2.00;71.20;;;;;;4998159;28;20432;-62
2023/02/28 05:35:40;;;;;;;10.57;7.40;;;-2.00;71.30;;;;;;4993251;28;20458;-61
2023/02/28 05:38:06;;;;;;;10.60;7.60;;;-2.00;71.30;;;;;;5003114;28;20433;-61
2023/02/28 05:40:31;;;;;;;11.23;7.83;;;-2.00;71.50;;;;;;4993474;28;20445;-62
2023/02/28 05:42:57;;;;;;;12.07;8.20;;;-2.00;71.20;;;;;;5001116;28;20465;-62
2023/02/28 05:45:23;;;;;;;15.37;8.43;;;-1.90;70.90;;;;;;4997964;28;20585;-61
2023/02/28 05:47:48;;;;;;;11.77;8.30;;;-1.90;70.90;;;;;;4995527;28;20183;-61
2023/02/28 05:50:14;;;;;;;21.97;7.70;;;-1.90;70.60;;;;;;4999376;28;20182;-59
2023/02/28 05:52:40;;;;;;;11.93;8.23;;;-1.90;70.20;;;;;;4999065;28;20202;-55
2023/02/28 05:55:06;;;;;;;14.07;8.40;;;-1.90;69.60;;;;;;5005507;28;20858;-55
2023/02/28 05:57:32;;;;;;;12.40;8.23;;;-1.90;69.80;;;;;;5005485;28;20193;-55
2023/02/28 05:59:57;;;;;;;11.03;7.80;;;-1.90;70.10;;;;;;4998660;28;20533;-60
2023/02/28 06:02:23;;;;;;;16.10;8.70;;;-1.90;70.10;;;;;;5003658;28;20818;-59
2023/02/28 06:04:48;;;;;;;13.60;8.57;;;-1.90;69.80;;;;;;5003535;28;20214;-59
2023/02/28 06:07:14;;;;;;;10.40;7.80;;;-1.90;70.00;;;;;;5007629;28;20178;-59
2023/02/28 06:09:40;;;;;;;13.40;8.10;;;-1.90;70.00;;;;;;5006931;28;20182;-59
2023/02/28 06:12:07;;;;;;;13.60;7.90;;;-1.90;70.00;;;;;;5003180;28;20441;-60
2023/02/28 06:14:34;;;;;;;10.23;7.93;;;-1.90;69.80;;;;;;5007069;28;20338;-60
2023/02/28 06:17:01;;;;;;;11.83;7.57;;;-1.90;69.80;;;;;;5005286;28;20600;-60
2023/02/28 06:19:28;;;;;;;11.97;8.30;;;-1.90;69.70;;;;;;5003975;28;20447;-61
2023/02/28 06:21:55;;;;;;;11.20;7.97;;;-1.90;69.80;;;;;;5002372;28;20538;-60
2023/02/28 06:24:21;;;;;;;13.80;8.10;;;-1.90;69.70;;;;;;5005855;28;20462;-59
2023/02/28 06:26:47;;;;;;;15.73;9.10;;;-2.00;69.60;;;;;;5010741;28;20468;-60
2023/02/28 06:29:16;;;;;;;15.80;7.90;;;-2.00;69.40;;;;;;5008588;28;20880;-60
2023/02/28 06:31:43;;;;;;;12.33;7.77;;;-2.00;69.80;;;;;;5002791;28;20242;-58
2023/02/28 06:34:11;;;;;;;16.60;8.50;;;-2.00;70.40;;;;;;5004664;28;20491;-59
2023/02/28 06:36:37;;;;;;;13.17;7.77;;;-2.00;70.40;;;;;;5025012;28;20475;-59
2023/02/28 06:39:03;;;;;;;13.97;8.30;;;-2.00;70.10;;;;;;5010095;28;20437;-59
2023/02/28 06:41:28;;;;;;;17.20;9.17;;;-2.00;70.50;;;;;;5007902;28;20496;-59
2023/02/28 06:43:54;;;;;;;16.13;9.93;;;-2.00;71.00;;;;;;5005700;28;20685;-59
2023/02/28 06:46:20;;;;;;;14.57;8.70;;;-2.00;71.50;;;;;;5006595;28;20173;-59
2023/02/28 06:48:46;;;;;;;11.40;7.60;;;-2.00;71.90;;;;;;5008196;28;20197;-60
2023/02/28 06:51:15;;;;;;;13.30;9.00;;;-2.00;71.60;;;;;;5002885;28;20446;-59
2023/02/28 06:53:41;;;;;;;14.80;8.50;;;-1.90;71.50;;;;;;5008888;28;20456;-59
2023/02/28 06:56:10;;;;;;;13.90;9.07;;;-1.90;71.70;;;;;;5008326;28;20867;-59
2023/02/28 06:58:37;;;;;;;13.50;8.23;;;-1.90;72.00;;;;;;5004967;28;20522;-59
2023/02/28 07:01:03;;;;;;;13.90;8.20;;;-1.90;71.70;;;;;;5003364;28;20748;-59
2023/02/28 07:03:29;;;;;;;11.40;8.27;;;-1.90;71.40;;;;;;5013393;28;20464;-59
2023/02/28 07:05:56;;;;;;;11.97;8.70;;;-1.80;71.10;;;;;;5004780;28;20452;-60
2023/02/28 07:08:23;;;;;;;15.30;8.90;;;-1.80;70.20;;;;;;5007722;28;20449;-59
2023/02/28 07:10:55;;;;;;;12.13;8.30;;;-1.80;70.10;;;;;;5006732;28;20445;-60
2023/02/28 07:13:21;;;;;;;14.43;8.23;;;-1.80;70.20;;;;;;5004261;28;20460;-60
2023/02/28 07:16:03;;;;;;;11.73;8.17;;;-1.80;70.80;;;;;;5007614;28;20429;-59
2023/02/28 07:18:28;;;;;;;13.83;9.07;;;-1.80;71.10;;;;;;5005596;28;20701;-62
2023/02/28 07:20:54;;;;;;;13.00;8.83;;;-1.80;71.60;;;;;;5009665;28;21320;-60
2023/02/28 07:23:21;;;;;;;13.60;8.17;;;-1.70;70.90;;;;;;5006102;28;20177;-59
2023/02/28 07:25:46;;;;;;;12.43;8.10;;;-1.80;70.70;;;;;;5015290;28;20431;-59
2023/02/28 07:28:13;;;;;;;12.20;8.30;;;-1.70;70.20;;;;;;5009436;28;20856;-59
2023/02/28 07:30:40;;;;;;;13.63;7.57;;;-1.70;70.40;;;;;;5004970;28;20829;-59
2023/02/28 07:33:05;;;;;;;12.70;8.03;;;-1.70;70.20;;;;;;5021080;28;20421;-59
2023/02/28 07:35:32;;;;;;;12.90;8.77;;;-1.70;69.70;;;;;;5012442;28;20435;-59
2023/02/28 07:37:58;;;;;;;17.50;8.77;;;-1.70;69.20;;;;;;5026443;28;20194;-59
2023/02/28 07:40:24;;;;;;;12.90;8.57;;;-1.70;69.20;;;;;;5005054;28;20846;-59
2023/02/28 07:42:50;;;;;;;12.47;7.93;;;-1.70;69.40;;;;;;5008068;28;20517;-59
2023/02/28 07:45:16;;;;;;;13.73;8.40;;;-1.70;69.60;;;;;;5007581;28;20865;-60
2023/02/28 07:47:43;;;;;;;12.53;8.90;;;-1.70;69.50;;;;;;5003704;28;20182;-60
2023/02/28 07:50:11;;;;;;;15.10;8.57;;;-1.70;69.60;;;;;;5008478;28;20413;-60
2023/02/28 07:52:37;;;;;;;16.20;9.17;;;-1.70;69.70;;;;;;5003765;28;20441;-60
2023/02/28 07:55:05;;;;;;;15.27;8.70;;;-1.70;69.90;;;;;;5012020;28;20576;-59
2023/02/28 07:57:31;;;;;;;13.07;8.20;;;-1.70;70.40;;;;;;5012653;28;20444;-59
2023/02/28 07:59:56;;;;;;;17.60;9.30;;;-1.70;70.40;;;;;;5011382;28;20444;-59
2023/02/28 08:02:22;;;;;;;19.07;9.00;;;-1.60;69.90;;;;;;5008337;28;20887;-59
2023/02/28 08:04:48;;;;;;;14.47;8.60;;;-1.60;70.10;;;;;;5010935;28;20229;-60
2023/02/28 08:07:15;;;;;;;14.53;9.30;;;-1.60;70.20;;;;;;5011615;28;20180;-59
2023/02/28 08:09:41;;;;;;;11.33;8.40;;;-1.60;70.10;;;;;;5007052;28;20693;-60
2023/02/28 08:12:08;;;;;;;16.20;8.90;;;-1.60;69.90;;;;;;5007475;28;20957;-59
2023/02/28 08:14:34;;;;;;;16.00;9.20;;;-1.60;69.50;;;;;;5010166;28;20472;-60
2023/02/28 08:17:00;;;;;;;16.40;9.90;;;-1.60;69.60;;;;;;5011192;28;20436;-59
2023/02/28 08:19:26;;;;;;;12.13;8.47;;;-1.60;69.50;;;;;;5012383;28;20448;-60
2023/02/28 08:21:51;;;;;;;17.10;9.40;;;-1.60;69.50;;;;;;5011308;28;20825;-60
2023/02/28 08:24:17;;;;;;;15.90;8.20;;;-1.60;69.30;;;;;;5005455;28;20211;-61
2023/02/28 08:26:43;;;;;;;17.30;9.00;;;-1.50;69.40;;;;;;5009273;28;20182;-60
2023/02/28 08:29:08;;;;;;;15.03;8.97;;;-1.50;69.80;;;;;;5010532;28;20435;-59
2023/02/28 08:31:35;;;;;;;17.00;9.43;;;-1.50;70.20;;;;;;5003876;28;20184;-60
2023/02/28 08:34:08;;;;;;;14.07;9.47;;;-1.50;70.10;;;;;;5012304;28;20207;-59
2023/02/28 08:36:34;;;;;;;16.73;9.40;;;-1.50;69.80;;;;;;5012448;28;20434;-59
2023/02/28 08:39:00;;;;;;;14.80;9.30;;;-1.50;70.10;;;;;;5014749;28;20443;-60
2023/02/28 08:41:26;;;;;;;15.30;9.90;;;-1.50;70.20;;;;;;5005646;28;20513;-59
2023/02/28 08:43:53;;;;;;;15.37;9.20;;;-1.50;70.20;;;;;;5002991;28;20843;-60
2023/02/28 08:46:19;;;;;;;15.27;9.57;;;-1.50;70.10;;;;;;5004739;28;20170;-59
2023/02/28 08:48:45;;;;;;;20.53;11.60;;;-1.50;70.50;;;;;;5010288;28;20495;-60
2023/02/28 08:51:18;;;;;;;24.63;13.13;;;-1.40;71.00;;;;;;5011274;28;20182;-59
2023/02/28 08:53:44;;;;;;;20.70;10.77;;;-1.50;70.50;;;;;;5008728;28;20207;-59
2023/02/28 08:56:13;;;;;;;38.60;16.10;;;-1.40;70.40;;;;;;5011294;28;20516;-59
2023/02/28 08:58:39;;;;;;;18.07;10.73;;;-1.40;70.40;;;;;;5009681;28;20448;-59
2023/02/28 09:01:27;;;;;;;18.43;9.90;;;-1.40;70.10;;;;;;5008050;28;20437;-59
2023/02/28 09:03:53;;;;;;;20.23;10.30;;;-1.30;70.30;;;;;;5006356;28;20474;-59
2023/02/28 09:06:20;;;;;;;20.10;10.07;;;-1.30;70.10;;;;;;5010735;28;20502;-59
2023/02/28 09:08:46;;;;;;;15.07;9.97;;;-1.30;70.00;;;;;;5019775;28;20465;-59
2023/02/28 09:11:12;;;;;;;18.17;9.93;;;-1.30;69.90;;;;;;5003976;28;20472;-59
2023/02/28 09:13:38;;;;;;;16.73;10.30;;;-1.30;69.50;;;;;;5011571;28;20190;-60
2023/02/28 09:16:06;;;;;;;15.70;10.90;;;-1.30;69.60;;;;;;5010899;28;20448;-59
2023/02/28 09:18:36;;;;;;;18.47;9.70;;;-1.20;69.20;;;;;;5012898;28;21020;-60
2023/02/28 09:21:07;;;;;;;18.27;10.30;;;-1.20;69.00;;;;;;5007660;28;20467;-58
2023/02/28 09:23:32;;;;;;;16.97;10.43;;;-1.20;68.90;;;;;;5010974;28;20448;-60
2023/02/28 09:25:58;;;;;;;18.67;10.20;;;-1.20;69.70;;;;;;5009194;28;20918;-59
2023/02/28 09:28:24;;;;;;;17.80;10.50;;;-1.20;70.50;;;;;;5002630;28;20170;-59
2023/02/28 09:30:52;;;;;;;13.97;9.57;;;-1.20;70.30;;;;;;5008436;28;20186;-60
2023/02/28 09:33:20;;;;;;;18.50;11.03;;;-1.20;69.50;;;;;;5015404;28;20437;-61
2023/02/28 09:35:47;;;;;;;17.40;10.43;;;-1.20;69.30;;;;;;5009049;28;20437;-61
2023/02/28 09:38:13;;;;;;;17.30;9.83;;;-1.10;69.80;;;;;;5008354;28;20511;-61
2023/02/28 09:40:45;;;;;;;20.30;11.30;;;-1.10;69.20;;;;;;5005955;28;20497;-60
2023/02/28 09:43:15;;;;;;;17.20;10.80;;;-1.00;68.90;;;;;;5007528;28;20515;-60
2023/02/28 09:45:44;;;;;;;19.20;10.23;;;-1.00;68.50;;;;;;5008395;28;20468;-60
2023/02/28 09:48:17;;;;;;;19.27;10.97;;;-1.00;68.60;;;;;;5016793;28;20508;-60
2023/02/28 09:51:00;;;;;;;19.87;10.30;;;-0.90;68.90;;;;;;5008911;28;20473;-60
2023/02/28 09:53:34;;;;;;;17.07;10.67;;;-0.90;69.20;;;;;;5008792;28;20433;-59
2023/02/28 09:56:08;;;;;;;19.07;9.83;;;-0.90;68.00;;;;;;5008142;28;20483;-59
2023/02/28 09:59:12;;;;;;;15.67;10.13;;;-0.90;68.30;;;;;;5009032;28;20495;-59
2023/02/28 10:02:04;;;;;;;15.97;9.90;;;-0.90;68.60;;;;;;5007541;28;21017;-59
2023/02/28 10:04:51;;;;;;;22.73;11.87;;;-0.80;68.40;;;;;;5012031;28;20451;-59
2023/02/28 10:07:38;;;;;;;15.20;9.80;;;-0.80;67.90;;;;;;5002041;28;20475;-60
2023/02/28 10:10:15;;;;;;;18.83;10.93;;;-0.80;67.60;;;;;;5006185;28;20447;-60
2023/02/28 10:12:45;;;;;;;16.70;10.20;;;-0.70;67.20;;;;;;5009968;28;20455;-57
2023/02/28 10:15:15;;;;;;;22.30;11.03;;;-0.70;67.50;;;;;;5008257;28;20476;-60
2023/02/28 10:17:45;;;;;;;19.60;12.63;;;-0.60;67.20;;;;;;5006221;28;20484;-59
2023/02/28 10:20:13;;;;;;;22.50;12.00;;;-0.60;66.80;;;;;;5008395;28;20412;-60
2023/02/28 10:22:38;;;;;;;19.30;11.00;;;-0.60;66.60;;;;;;5008668;28;20831;-60
2023/02/28 10:25:31;;;;;;;20.03;11.50;;;-0.60;66.90;;;;;;5002567;28;20451;-60
2023/02/28 10:28:11;;;;;;;23.53;11.93;;;-0.60;66.60;;;;;;5001124;28;20191;-58
2023/02/28 10:30:43;;;;;;;19.93;11.50;;;-0.50;66.90;;;;;;5008145;28;20459;-59
2023/02/28 10:33:18;;;;;;;18.43;10.40;;;-0.50;66.80;;;;;;5006083;28;20445;-58
2023/02/28 10:35:43;;;;;;;24.67;11.97;;;-0.50;66.60;;;;;;5005322;28;20831;-59
2023/02/28 10:38:18;;;;;;;20.60;11.27;;;-0.50;66.60;;;;;;5014782;28;20993;-54
2023/02/28 10:40:44;;;;;;;23.80;12.60;;;-0.50;66.60;;;;;;5007659;28;20563;-56
2023/02/28 10:43:12;;;;;;;20.90;11.80;;;-0.60;66.30;;;;;;5002004;28;20469;-57
2023/02/28 10:45:39;;;;;;;22.20;12.43;;;-0.60;66.20;;;;;;5004584;28;20208;-58
2023/02/28 10:48:25;;;;;;;18.90;11.80;;;-0.60;66.80;;;;;;5006947;28;20422;-57
2023/02/28 10:50:51;;;;;;;20.50;11.10;;;-0.60;67.00;;;;;;5005999;28;20479;-57
2023/02/28 10:53:26;;;;;;;22.40;12.70;;;-0.60;66.80;;;;;;5015462;28;20520;-59
2023/02/28 10:56:09;;;;;;;18.40;11.20;;;-0.60;66.80;;;;;;5004833;28;20440;-57
2023/02/28 10:58:48;;;;;;;24.03;12.40;;;-0.60;67.00;;;;;;4996100;28;20479;-59
2023/02/28 11:01:17;;;;;;;20.40;11.90;;;-0.50;66.70;;;;;;4998290;28;20470;-60
2023/02/28 11:03:43;;;;;;;21.97;12.60;;;-0.50;66.60;;;;;;5000683;28;20458;-59
2023/02/28 11:06:30;;;;;;;19.97;11.73;;;-0.50;66.90;;;;;;5003447;28;20584;-57
2023/02/28 11:09:00;;;;;;;21.30;11.57;;;-0.50;66.90;;;;;;5000466;28;20179;-57
2023/02/28 11:11:28;;;;;;;20.80;11.70;;;-0.50;66.60;;;;;;4998188;28;20452;-57
2023/02/28 11:14:05;;;;;;;19.97;11.70;;;-0.40;66.80;;;;;;5005692;28;21003;-61
2023/02/28 11:16:37;;;;;;;22.50;11.80;;;-0.40;67.00;;;;;;5011533;28;20432;-59
2023/02/28 11:19:06;;;;;;;22.53;10.93;;;-0.40;66.50;;;;;;5004489;28;20429;-60
2023/02/28 11:21:39;;;;;;;18.93;11.70;;;-0.40;66.70;;;;;;5004183;28;20994;-58
2023/02/28 11:24:05;;;;;;;21.77;12.57;;;-0.40;66.30;;;;;;5005426;28;20849;-59
2023/02/28 11:26:50;;;;;;;20.77;12.27;;;-0.40;66.20;;;;;;5006010;28;20418;-58
2023/02/28 11:29:24;;;;;;;20.93;12.03;;;-0.40;66.10;;;;;;4998465;28;20198;-61
2023/02/28 11:32:08;;;;;;;23.40;12.50;;;-0.40;65.80;;;;;;5007024;28;20475;-59
2023/02/28 11:34:35;;;;;;;24.27;12.10;;;-0.40;65.60;;;;;;5026414;28;20451;-61
2023/02/28 11:37:05;;;;;;;26.73;12.13;;;-0.40;65.40;;;;;;5008380;28;20436;-60
2023/02/28 11:39:31;;;;;;;19.87;11.67;;;-0.30;65.20;;;;;;5008548;28;20451;-59
2023/02/28 11:42:30;;;;;;;23.20;13.47;;;-0.30;65.80;;;;;;5005476;28;20551;-59
2023/02/28 11:45:07;;;;;;;19.67;12.67;;;-0.30;65.50;;;;;;5008951;28;20874;-60
2023/02/28 11:47:44;;;;;;;21.50;11.30;;;-0.30;65.50;;;;;;5007118;28;20434;-60
2023/02/28 11:50:39;;;;;;;26.97;12.90;;;-0.20;66.00;;;;;;5009192;28;20442;-56
2023/02/28 11:53:31;;;;;;;20.57;11.20;;;-0.30;65.80;;;;;;5007519;28;20468;-58
2023/02/28 11:56:22;;;;;;;20.63;11.37;;;-0.30;65.80;;;;;;5007767;28;20503;-59
2023/02/28 11:58:52;;;;;;;22.13;11.73;;;-0.30;65.80;;;;;;5006713;28;20515;-59
2023/02/28 12:01:31;;;;;;;25.20;13.70;;;-0.20;66.10;;;;;;5002494;28;20433;-59
2023/02/28 12:03:57;;;;;;;23.23;12.07;;;-0.20;65.50;;;;;;5007680;28;20453;-59
2023/02/28 12:06:34;;;;;;;22.67;12.70;;;-0.20;65.30;;;;;;5009710;28;20463;-58
2023/02/28 12:09:32;;;;;;;23.20;12.03;;;-0.10;65.10;;;;;;5011642;28;20201;-58
2023/02/28 12:12:21;;;;;;;23.80;13.17;;;-0.10;65.20;;;;;;5007832;28;20449;-58
2023/02/28 12:15:02;;;;;;;28.37;14.30;;;-0.10;65.30;;;;;;5001037;28;20454;-58
2023/02/28 12:17:46;;;;;;;19.53;12.50;;;-0.10;65.80;;;;;;5003381;28;20446;-58
2023/02/28 12:20:23;;;;;;;19.50;11.93;;;0.00;66.20;;;;;;5011448;28;20429;-58
2023/02/28 12:22:52;;;;;;;21.87;12.43;;;0.00;65.40;;;;;;5007685;28;20546;-57
2023/02/28 12:25:26;;;;;;;22.17;13.07;;;0.10;65.70;;;;;;5007831;28;20448;-59
2023/02/28 12:27:55;;;;;;;32.03;13.43;;;0.20;64.70;;;;;;5008923;28;20429;-58
2023/02/28 12:30:36;;;;;;;19.93;12.37;;;0.30;64.40;;;;;;5006371;28;20466;-58
2023/02/28 12:33:13;;;;;;;22.70;13.23;;;0.30;64.30;;;;;;5003493;28;20437;-58
2023/02/28 12:35:50;;;;;;;21.03;12.37;;;0.30;63.70;;;;;;5006619;28;20490;-58
2023/02/28 12:38:24;;;;;;;20.00;12.53;;;0.40;63.50;;;;;;5002084;28;20438;-57
2023/02/28 12:41:21;;;;;;;24.90;13.07;;;0.30;63.10;;;;;;5002810;28;20527;-58
2023/02/28 12:43:57;;;;;;;19.10;12.50;;;0.20;63.10;;;;;;4983855;28;20560;-58
2023/02/28 12:46:30;;;;;;;20.90;11.97;;;0.20;63.20;;;;;;5007488;28;20424;-61
2023/02/28 12:48:58;;;;;;;23.57;12.97;;;0.30;63.00;;;;;;5009929;28;20446;-58
2023/02/28 12:51:26;;;;;;;22.13;12.37;;;0.40;62.80;;;;;;5003210;28;20437;-59